createdAt,value
2022-09-05T00:01:41.365Z,74.05
2022-09-05T00:04:25.321Z,74.29
2022-09-05T00:07:03.176Z,74.24
2022-09-05T00:09:45.218Z,74.49
2022-09-05T00:12:13.783Z,74.48
2022-09-05T00:15:17.392Z,74.75
2022-09-05T00:20:21.979Z,74.09
2022-09-05T00:24:20.906Z,74.78
2022-09-05T00:24:36.442Z,75.07
2022-09-05T00:27:19.801Z,75.25
2022-09-05T00:31:07.269Z,75.22
2022-09-05T00:33:17.211Z,75.16
2022-09-05T00:36:21.225Z,75.57
2022-09-05T00:39:02.973Z,75.61
2022-09-05T00:41:34.176Z,75.88
2022-09-05T00:44:03.214Z,75.95
2022-09-05T00:46:34.838Z,75.69
2022-09-05T00:49:13.366Z,75.58
2022-09-05T00:52:00.866Z,75.20
2022-09-05T00:54:46.209Z,75.68
2022-09-05T00:57:35.887Z,76.33
2022-09-05T01:00:17.946Z,75.32
2022-09-05T01:03:10.253Z,75.85
2022-09-05T01:06:04.848Z,76.68
2022-09-05T01:09:07.942Z,76.57
2022-09-05T01:11:46.912Z,76.08
2022-09-05T01:14:39.981Z,77.30
2022-09-05T01:17:44.134Z,77.27
2022-09-05T01:20:43.809Z,76.84
2022-09-05T01:23:18.379Z,76.11
2022-09-05T01:26:20.428Z,76.93
2022-09-05T01:29:18.418Z,77.14
2022-09-05T01:32:10.404Z,77.44
2022-09-05T01:35:03.972Z,77.67
2022-09-05T01:37:57.347Z,78.01
2022-09-05T01:40:44.301Z,77.40
2022-09-05T01:43:39.912Z,77.81
2022-09-05T01:46:17.847Z,77.66
2022-09-05T01:49:37.293Z,78.63
2022-09-05T01:52:57.135Z,77.98
2022-09-05T01:56:04.353Z,77.82
2022-09-05T01:58:46.741Z,77.84
2022-09-05T02:01:44.894Z,77.84
2022-09-05T02:04:24.877Z,77.98
2022-09-05T02:07:30.204Z,78.16
2022-09-05T02:10:07.232Z,77.99
2022-09-05T02:12:58.426Z,78.26
2022-09-05T02:15:52.290Z,78.33
2022-09-05T02:18:48.450Z,78.38
2022-09-05T02:21:33.503Z,78.30
2022-09-05T02:24:29.490Z,78.70
2022-09-05T02:28:04.004Z,79.24
2022-09-05T02:30:33.992Z,78.98
2022-09-05T02:33:03.593Z,79.73
2022-09-05T02:35:53.326Z,79.63
2022-09-05T02:41:40.507Z,79.90
2022-09-05T02:45:11.149Z,79.79
2022-09-05T02:45:20.006Z,79.38
2022-09-05T02:47:52.097Z,80.11
2022-09-05T02:57:23.937Z,80.14
2022-09-05T02:57:41.945Z,80.18
2022-09-05T02:57:42.130Z,80.70
2022-09-05T02:59:53.777Z,80.53
2022-09-05T03:02:27.267Z,80.42
2022-09-05T03:05:04.754Z,80.75
2022-09-05T03:08:02.436Z,80.54
2022-09-05T03:10:56.774Z,80.46
2022-09-05T03:13:48.979Z,79.99
2022-09-05T03:16:47.167Z,80.29
2022-09-05T03:19:33.116Z,80.25
2022-09-05T03:22:23.114Z,80.69
2022-09-05T03:25:24.173Z,80.30
2022-09-05T03:27:53.465Z,80.35
2022-09-05T03:30:26.148Z,81.21
2022-09-05T03:33:08.285Z,81.47
2022-09-05T03:35:59.470Z,81.16
2022-09-05T03:38:31.595Z,81.40
2022-09-05T03:41:09.661Z,80.96
2022-09-05T03:43:54.470Z,81.24
2022-09-05T03:46:40.642Z,81.63
2022-09-05T03:50:40.175Z,81.56
2022-09-05T03:57:10.993Z,81.48
2022-09-05T03:57:24.630Z,80.94
2022-09-05T03:58:11.928Z,81.44
2022-09-05T04:01:22.671Z,81.57
2022-09-05T04:08:10.062Z,82.61
2022-09-05T04:08:16.626Z,83.07
2022-09-05T04:09:59.291Z,83.07
2022-09-05T04:12:47.311Z,83.11
2022-09-05T04:15:34.518Z,82.42
2022-09-05T04:18:11.706Z,82.42
2022-09-05T04:20:47.912Z,82.29
2022-09-05T04:23:29.478Z,82.15
2022-09-05T04:26:27.060Z,82.84
2022-09-05T04:29:04.211Z,82.98
2022-09-05T04:31:39.783Z,82.86
2022-09-05T04:34:43.079Z,82.50
2022-09-05T04:37:10.980Z,82.11
2022-09-05T04:39:37.704Z,82.29
2022-09-05T04:42:38.556Z,82.37
2022-09-05T04:45:17.510Z,82.46
2022-09-05T04:47:55.037Z,82.53
2022-09-05T04:50:24.962Z,82.43
2022-09-05T04:53:20.097Z,82.73
2022-09-05T04:55:51.416Z,82.54
2022-09-05T04:59:25.608Z,83.11
2022-09-05T05:06:01.607Z,83.26
2022-09-05T05:06:11.031Z,83.09
2022-09-05T05:07:33.133Z,83.57
2022-09-05T05:11:57.765Z,83.21
2022-09-05T05:18:03.864Z,83.68
2022-09-05T05:18:15.635Z,83.45
2022-09-05T05:19:05.134Z,83.77
2022-09-05T05:21:34.352Z,84.27
2022-09-05T05:24:12.997Z,84.81
2022-09-05T05:26:56.924Z,84.40
2022-09-05T05:29:36.699Z,84.25
2022-09-05T05:32:04.970Z,84.17
2022-09-05T05:34:41.636Z,84.42
2022-09-05T05:37:25.277Z,85.04
2022-09-05T05:40:05.229Z,85.65
2022-09-05T05:42:32.780Z,85.17
2022-09-05T05:44:59.874Z,85.52
2022-09-05T05:47:36.061Z,85.29
2022-09-05T05:50:23.928Z,85.25
2022-09-05T05:52:59.618Z,85.28
2022-09-05T05:56:05.382Z,85.58
2022-09-05T05:58:50.198Z,85.51
2022-09-05T06:01:37.379Z,85.73
2022-09-05T06:04:45.132Z,85.74
2022-09-05T06:08:39.954Z,86.50
2022-09-05T06:14:52.494Z,86.85
2022-09-05T06:15:02.642Z,86.09
2022-09-05T06:17:28.241Z,86.14
2022-09-05T06:22:06.614Z,86.09
2022-09-05T06:23:41.667Z,85.55
2022-09-05T06:26:49.410Z,85.48
2022-09-05T06:29:55.672Z,85.50
2022-09-05T06:32:56.893Z,84.65
2022-09-05T06:35:37.989Z,83.99
2022-09-05T06:38:13.501Z,85.00
2022-09-05T06:40:53.499Z,83.79
2022-09-05T06:43:32.244Z,83.40
2022-09-05T06:46:41.578Z,82.63
2022-09-05T06:49:30.644Z,82.04
2022-09-05T06:52:28.560Z,81.82
2022-09-05T06:55:17.785Z,81.06
2022-09-05T06:58:05.592Z,79.96
2022-09-05T07:00:34.054Z,78.96
2022-09-05T07:03:19.180Z,79.35
2022-09-05T07:05:58.766Z,79.36
2022-09-05T07:08:48.195Z,79.61
2022-09-05T07:11:25.651Z,78.04
2022-09-05T07:14:09.461Z,76.57
2022-09-05T07:16:55.111Z,76.34
2022-09-05T07:19:28.600Z,72.65
2022-09-05T07:22:47.925Z,71.86
2022-09-05T07:25:30.360Z,70.45
2022-09-05T07:28:29.806Z,70.54
2022-09-05T07:31:09.122Z,68.84
2022-09-05T07:33:39.403Z,64.90
2022-09-05T07:36:10.672Z,62.82
2022-09-05T07:38:54.859Z,62.67
2022-09-05T07:41:35.030Z,61.27
2022-09-05T07:44:22.279Z,61.32
2022-09-05T07:46:56.287Z,62.16
2022-09-05T07:49:28.690Z,60.99
2022-09-05T07:57:02.241Z,61.80
2022-09-05T07:57:10.686Z,59.30
2022-09-05T07:57:52.241Z,61.23
2022-09-05T08:00:27.105Z,60.33
2022-09-05T08:03:08.469Z,61.11
2022-09-05T08:05:43.831Z,60.66
2022-09-05T08:08:16.562Z,59.55
2022-09-05T08:11:22.137Z,58.31
2022-09-05T08:13:42.675Z,58.33
2022-09-05T08:16:17.533Z,58.35
2022-09-05T08:18:50.205Z,58.71
2022-09-05T08:21:48.833Z,57.59
2022-09-05T08:24:48.740Z,58.63
2022-09-05T08:27:24.390Z,57.94
2022-09-05T08:30:26.131Z,58.15
2022-09-05T08:33:10.453Z,58.85
2022-09-05T08:36:01.645Z,56.17
2022-09-05T08:38:40.638Z,56.86
2022-09-05T08:41:07.547Z,57.58
2022-09-05T08:46:35.641Z,56.57
2022-09-05T08:46:49.033Z,56.45
2022-09-05T08:49:39.431Z,55.34
2022-09-05T08:52:22.856Z,56.57
2022-09-05T08:55:11.183Z,56.15
2022-09-05T08:57:47.004Z,55.72
2022-09-05T09:00:24.569Z,55.51
2022-09-05T09:03:11.846Z,55.15
2022-09-05T09:06:12.499Z,54.99
2022-09-05T09:08:43.105Z,55.71
2022-09-05T09:11:22.041Z,53.67
2022-09-05T09:14:30.125Z,53.78
2022-09-05T09:17:16.077Z,54.30
2022-09-05T09:19:58.570Z,54.76
2022-09-05T09:22:34.936Z,54.41
2022-09-05T09:25:12.044Z,54.66
2022-09-05T09:28:48.673Z,54.55
2022-09-05T09:30:41.641Z,53.72
2022-09-05T09:33:15.263Z,53.22
2022-09-05T09:35:59.462Z,53.27
2022-09-05T09:39:11.923Z,53.18
2022-09-05T09:41:55.628Z,52.59
2022-09-05T09:44:46.734Z,51.49
2022-09-05T09:47:19.074Z,50.65
2022-09-05T09:50:20.833Z,50.48
2022-09-05T09:53:13.256Z,50.60
2022-09-05T09:56:10.862Z,50.84
2022-09-05T09:59:06.418Z,49.75
2022-09-05T10:04:29.477Z,49.99
2022-09-05T10:11:00.443Z,50.14
2022-09-05T10:11:09.108Z,50.39
2022-09-05T10:11:54.347Z,49.70
2022-09-05T10:14:49.408Z,50.06
2022-09-05T10:17:27.323Z,49.04
2022-09-05T10:20:13.310Z,49.56
2022-09-05T10:22:45.579Z,46.72
2022-09-05T10:25:47.148Z,48.13
2022-09-05T10:28:43.067Z,47.29
2022-09-05T10:33:24.249Z,48.54
2022-09-05T10:35:14.036Z,46.97
2022-09-05T10:37:18.921Z,45.77
2022-09-05T10:39:51.310Z,45.95
2022-09-05T10:42:30.190Z,46.66
2022-09-05T10:44:57.801Z,46.00
2022-09-05T10:47:42.752Z,46.01
2022-09-05T10:50:36.135Z,45.82
2022-09-05T10:53:15.339Z,45.20
2022-09-05T10:56:00.509Z,45.52
2022-09-05T10:59:17.905Z,45.58
2022-09-05T11:02:27.083Z,44.34
2022-09-05T11:04:46.636Z,44.43
2022-09-05T11:07:54.238Z,44.42
2022-09-05T11:10:51.205Z,43.12
2022-09-05T11:13:39.533Z,44.31
2022-09-05T11:16:20.478Z,43.19
2022-09-05T11:19:29.926Z,43.66
2022-09-05T11:22:13.823Z,43.30
2022-09-05T11:24:57.262Z,42.93
2022-09-05T11:27:36.938Z,41.85
2022-09-05T11:30:07.855Z,42.70
2022-09-05T11:38:35.500Z,41.96
2022-09-05T11:39:51.149Z,40.43
2022-09-05T11:40:04.704Z,40.37
2022-09-05T11:41:57.821Z,39.83
2022-09-05T11:44:27.376Z,38.73
2022-09-05T11:47:28.216Z,40.18
2022-09-05T11:49:49.289Z,38.48
2022-09-05T11:52:40.725Z,38.92
2022-09-05T11:55:36.790Z,37.34
2022-09-05T11:58:53.797Z,37.27
2022-09-05T12:01:44.163Z,36.02
2022-09-05T12:04:39.141Z,34.21
2022-09-05T12:07:31.657Z,34.39
2022-09-05T12:10:46.838Z,34.63
2022-09-05T12:13:48.055Z,34.25
2022-09-05T12:16:20.319Z,33.70
2022-09-05T12:19:18.674Z,33.59
2022-09-05T12:22:16.470Z,34.21
2022-09-05T12:25:18.731Z,32.87
2022-09-05T12:28:40.436Z,33.86
2022-09-05T12:32:58.075Z,31.96
2022-09-05T12:36:12.246Z,33.04
2022-09-05T12:39:52.163Z,32.13
2022-09-05T12:41:34.468Z,32.95
2022-09-05T12:44:36.697Z,32.52
2022-09-05T12:46:09.585Z,31.34
2022-09-05T12:49:07.200Z,31.76
2022-09-05T12:51:47.106Z,32.31
2022-09-05T12:54:34.664Z,31.56
2022-09-05T13:00:56.197Z,31.36
2022-09-05T13:03:01.345Z,31.98
2022-09-05T13:03:09.658Z,29.92
2022-09-05T13:06:05.366Z,31.30
2022-09-05T13:08:59.529Z,30.78
2022-09-05T13:14:47.710Z,30.68
2022-09-05T13:14:55.288Z,29.86
2022-09-05T13:17:16.672Z,32.33
2022-09-05T13:19:51.202Z,30.31
2022-09-05T13:22:24.064Z,29.65
2022-09-05T13:25:07.346Z,29.78
2022-09-05T13:27:40.803Z,29.14
2022-09-05T13:31:24.835Z,30.13
2022-09-05T13:38:19.331Z,29.40
2022-09-05T13:38:29.295Z,30.13
2022-09-05T13:39:11.635Z,31.87
2022-09-05T13:41:46.454Z,30.45
2022-09-05T13:44:27.347Z,30.01
2022-09-05T13:46:59.088Z,28.32
2022-09-05T13:49:29.391Z,27.96
2022-09-05T13:52:26.294Z,29.57
2022-09-05T13:55:10.672Z,29.15
2022-09-05T13:57:44.685Z,30.72
2022-09-05T14:00:27.553Z,29.64
2022-09-05T14:03:39.137Z,30.57
2022-09-05T14:06:45.180Z,28.99
2022-09-05T14:09:43.228Z,27.31
2022-09-05T14:12:32.146Z,28.68
2022-09-05T14:15:13.677Z,28.09
2022-09-05T14:18:58.080Z,27.84
2022-09-05T14:21:28.927Z,26.60
2022-09-05T14:24:12.512Z,26.42
2022-09-05T14:26:48.061Z,27.60
2022-09-05T14:29:20.523Z,26.90
2022-09-05T14:37:43.766Z,26.62
2022-09-05T14:37:46.472Z,28.08
2022-09-05T14:38:15.271Z,28.42
2022-09-05T14:41:20.510Z,28.34
2022-09-05T14:44:08.327Z,28.50
2022-09-05T14:47:34.972Z,28.97
2022-09-05T14:50:17.631Z,28.89
2022-09-05T14:57:23.814Z,28.08
2022-09-05T15:02:53.353Z,29.50
2022-09-05T15:03:00.862Z,29.35
2022-09-05T15:05:15.971Z,29.12
2022-09-05T15:07:51.137Z,29.41
2022-09-05T15:12:21.379Z,28.75
2022-09-05T15:13:24.809Z,30.05
2022-09-05T15:16:02.413Z,29.36
2022-09-05T15:18:39.837Z,29.75
2022-09-05T15:21:38.187Z,30.53
2022-09-05T15:24:14.185Z,30.59
2022-09-05T15:27:01.803Z,30.28
2022-09-05T15:29:34.450Z,30.66
2022-09-05T15:32:22.534Z,30.63
2022-09-05T15:34:54.768Z,31.22
2022-09-05T15:37:22.451Z,31.35
2022-09-05T15:40:07.690Z,31.54
2022-09-05T15:42:51.440Z,32.20
2022-09-05T15:45:25.117Z,31.59
2022-09-05T15:48:26.561Z,31.85
2022-09-05T15:51:11.333Z,32.21
2022-09-05T15:53:40.806Z,32.57
2022-09-05T15:56:10.088Z,32.07
2022-09-05T15:58:53.241Z,32.38
2022-09-05T16:01:59.948Z,32.77
2022-09-05T16:10:21.498Z,33.03
2022-09-05T16:10:43.466Z,33.62
2022-09-05T16:10:48.477Z,34.24
2022-09-05T16:12:58.928Z,34.70
2022-09-05T16:16:50.135Z,34.40
2022-09-05T16:23:24.939Z,34.93
2022-09-05T16:23:31.433Z,34.70
2022-09-05T16:24:05.782Z,34.71
2022-09-05T16:26:46.531Z,34.82
2022-09-05T16:29:26.762Z,34.90
2022-09-05T16:31:59.727Z,34.61
2022-09-05T16:35:10.658Z,34.79
2022-09-05T16:37:39.534Z,35.06
2022-09-05T16:40:14.353Z,35.14
2022-09-05T16:42:51.351Z,35.69
2022-09-05T16:45:25.135Z,35.80
2022-09-05T16:48:02.456Z,35.88
2022-09-05T16:50:35.788Z,36.42
2022-09-05T16:53:30.444Z,36.18
2022-09-05T16:56:03.216Z,36.34
2022-09-05T16:58:49.021Z,36.33
2022-09-05T17:01:40.557Z,36.56
2022-09-05T17:04:20.657Z,37.16
2022-09-05T17:07:17.800Z,37.41
2022-09-05T17:09:45.985Z,37.71
2022-09-05T17:12:26.503Z,37.82
2022-09-05T17:20:20.179Z,38.36
2022-09-05T17:29:16.124Z,38.52
2022-09-05T17:29:27.390Z,38.87
2022-09-05T17:29:46.907Z,38.83
2022-09-05T17:31:55.915Z,39.27
2022-09-05T17:34:37.684Z,39.40
2022-09-05T17:37:14.793Z,39.65
2022-09-05T17:39:55.170Z,39.70
2022-09-05T17:42:32.712Z,39.82
2022-09-05T17:45:25.331Z,39.85
2022-09-05T17:47:55.650Z,40.17
2022-09-05T17:50:25.294Z,40.13
2022-09-05T17:52:56.266Z,40.53
2022-09-05T17:55:49.136Z,40.63
2022-09-05T17:58:49.591Z,40.93
2022-09-05T18:01:26.776Z,41.04
2022-09-05T18:03:54.358Z,41.27
2022-09-05T18:06:33.184Z,41.42
2022-09-05T18:09:08.801Z,41.58
2022-09-05T18:11:44.622Z,41.70
2022-09-05T18:14:24.648Z,41.75
2022-09-05T18:17:37.280Z,42.13
2022-09-05T18:19:43.893Z,42.47
2022-09-05T18:22:25.410Z,42.53
2022-09-05T18:25:13.930Z,42.84
2022-09-05T18:28:04.767Z,43.22
2022-09-05T18:30:37.111Z,43.42
2022-09-05T18:33:55.488Z,43.99
2022-09-05T18:35:56.064Z,45.89
2022-09-05T18:38:50.400Z,47.52
2022-09-05T18:41:21.771Z,48.30
2022-09-05T18:44:13.928Z,49.28
2022-09-05T18:46:51.727Z,49.11
2022-09-05T18:50:25.833Z,50.55
2022-09-05T18:52:30.694Z,50.96
2022-09-05T18:56:11.569Z,50.86
2022-09-05T18:58:22.165Z,51.61
2022-09-05T19:00:55.333Z,52.06
2022-09-05T19:03:31.554Z,53.36
2022-09-05T19:06:35.733Z,54.31
2022-09-05T19:08:56.558Z,55.15
2022-09-05T19:11:34.186Z,56.23
2022-09-05T19:14:26.678Z,56.09
2022-09-05T19:17:08.267Z,57.32
2022-09-05T19:20:05.158Z,58.95
2022-09-05T19:23:10.803Z,59.46
2022-09-05T19:25:38.289Z,60.29
2022-09-05T19:36:46.779Z,61.28
2022-09-05T19:37:03.294Z,61.52
2022-09-05T19:37:09.436Z,62.08
2022-09-05T19:37:37.437Z,63.23
2022-09-05T19:43:28.361Z,63.38
2022-09-05T19:47:40.605Z,63.42
2022-09-05T19:47:43.034Z,63.87
2022-09-05T19:48:19.778Z,63.77
2022-09-05T19:50:47.348Z,63.93
2022-09-05T19:53:18.101Z,64.46
2022-09-05T19:55:45.787Z,66.01
2022-09-05T19:58:28.998Z,66.47
2022-09-05T20:01:06.263Z,66.42
2022-09-05T20:03:38.301Z,66.51
2022-09-05T20:06:30.290Z,66.34
2022-09-05T20:09:09.521Z,67.29
2022-09-05T20:11:45.650Z,66.75
2022-09-05T20:14:31.015Z,68.29
2022-09-05T20:17:18.039Z,68.83
2022-09-05T20:19:45.342Z,68.85
2022-09-05T20:22:46.773Z,70.34
2022-09-05T20:25:08.590Z,71.17
2022-09-05T20:27:37.360Z,70.36
2022-09-05T20:30:15.011Z,71.03
2022-09-05T20:32:46.320Z,72.05
2022-09-05T20:38:04.766Z,71.04
2022-09-05T20:43:25.327Z,71.43
2022-09-05T20:43:29.306Z,70.40
2022-09-05T20:44:22.572Z,71.92
2022-09-05T20:50:44.389Z,72.94
2022-09-05T20:54:06.090Z,71.29
2022-09-05T20:54:16.968Z,72.90
2022-09-05T20:55:38.508Z,74.77
2022-09-05T20:58:15.235Z,76.00
2022-09-05T21:01:20.057Z,76.27
2022-09-05T21:03:45.460Z,75.25
2022-09-05T21:06:23.610Z,76.59
2022-09-05T21:08:52.325Z,77.08
2022-09-05T21:11:29.558Z,77.69
2022-09-05T21:13:59.367Z,76.53
2022-09-05T21:16:31.844Z,76.87
2022-09-05T21:18:58.514Z,77.62
2022-09-05T21:21:28.326Z,77.79
2022-09-05T21:24:17.534Z,77.69
2022-09-05T21:26:44.791Z,78.25
2022-09-05T21:29:11.274Z,78.19
2022-09-05T21:31:43.879Z,77.20
2022-09-05T21:34:25.911Z,78.05
2022-09-05T21:36:59.201Z,76.39
2022-09-05T21:39:41.691Z,77.36
2022-09-05T21:42:25.508Z,76.74
2022-09-05T21:47:45.068Z,75.98
2022-09-05T21:48:00.804Z,75.24
2022-09-05T21:50:32.050Z,74.89
2022-09-05T21:54:35.185Z,74.77
2022-09-05T21:59:21.453Z,75.52
2022-09-05T21:59:32.701Z,75.74
2022-09-05T22:01:37.465Z,77.63
2022-09-05T22:04:10.165Z,78.40
2022-09-05T22:06:36.878Z,77.57
2022-09-05T22:09:13.016Z,76.76
2022-09-05T22:11:40.735Z,75.60
2022-09-05T22:14:08.978Z,75.15
2022-09-05T22:16:39.990Z,75.55
2022-09-05T22:19:12.713Z,76.02
2022-09-05T22:21:40.149Z,75.65
2022-09-05T22:24:09.612Z,75.54
2022-09-05T22:27:11.602Z,76.08
2022-09-05T22:29:34.543Z,74.92
2022-09-05T22:32:01.220Z,74.98
2022-09-05T22:34:30.864Z,75.53
2022-09-05T22:36:57.599Z,75.68
2022-09-05T22:39:37.317Z,75.52
2022-09-05T22:42:10.338Z,75.13
2022-09-05T22:44:39.390Z,74.99
2022-09-05T22:47:07.816Z,75.66
2022-09-05T22:49:36.434Z,76.03
2022-09-05T22:52:07.163Z,77.28
2022-09-05T22:54:35.223Z,77.69
2022-09-05T22:57:02.213Z,78.02
2022-09-05T22:59:28.720Z,78.59
2022-09-05T23:01:55.301Z,77.67
2022-09-05T23:04:21.984Z,77.73
2022-09-05T23:06:48.622Z,78.32
2022-09-05T23:09:15.127Z,78.44
2022-09-05T23:11:41.761Z,77.32
2022-09-05T23:14:08.255Z,76.47
2022-09-05T23:16:34.802Z,75.86
2022-09-05T23:19:01.535Z,75.67
2022-09-05T23:21:28.224Z,75.01
2022-09-05T23:23:54.762Z,75.69
2022-09-05T23:26:22.123Z,75.79
2022-09-05T23:28:48.666Z,76.19
2022-09-05T23:31:15.264Z,77.61
2022-09-05T23:33:42.245Z,77.01
2022-09-05T23:36:13.743Z,77.27
2022-09-05T23:38:43.915Z,76.83
2022-09-05T23:41:13.661Z,78.88
2022-09-05T23:43:40.483Z,79.29
2022-09-05T23:46:07.879Z,78.09
2022-09-05T23:48:35.133Z,77.23
2022-09-05T23:51:07.226Z,76.89
2022-09-05T23:53:34.255Z,77.09
2022-09-05T23:56:05.142Z,76.90
2022-09-05T23:58:32.462Z,76.37
